sensor_id;sensor_type;location;lat;lon;timestamp;pressure;altitude;pressure_sealevel;temperature
15187;BMP180;7694;48.234;11.162;2023-07-20T00:00:27;95134.00;;;27.90
15187;BMP180;7694;48.234;11.162;2023-07-20T00:05:47;95140.00;;;27.80
15187;BMP180;7694;48.234;11.162;2023-07-20T00:11:09;95138.00;;;27.80
15187;BMP180;7694;48.234;11.162;2023-07-20T00:16:30;95142.00;;;27.80
15187;BMP180;7694;48.234;11.162;2023-07-20T00:21:51;95143.00;;;27.80
15187;BMP180;7694;48.234;11.162;2023-07-20T00:27:13;95147.00;;;27.70
15187;BMP180;7694;48.234;11.162;2023-07-20T00:32:34;95143.00;;;27.70
15187;BMP180;7694;48.234;11.162;2023-07-20T00:37:54;95148.00;;;27.60
15187;BMP180;7694;48.234;11.162;2023-07-20T00:43:16;95150.00;;;27.60
15187;BMP180;7694;48.234;11.162;2023-07-20T00:48:38;95147.00;;;27.60
15187;BMP180;7694;48.234;11.162;2023-07-20T00:54:00;95153.00;;;27.50
15187;BMP180;7694;48.234;11.162;2023-07-20T00:59:23;95150.00;;;27.50
15187;BMP180;7694;48.234;11.162;2023-07-20T01:04:43;95155.00;;;27.40
15187;BMP180;7694;48.234;11.162;2023-07-20T01:10:13;95152.00;;;27.30
15187;BMP180;7694;48.234;11.162;2023-07-20T01:15:38;95152.00;;;27.30
15187;BMP180;7694;48.234;11.162;2023-07-20T01:21:04;95143.00;;;27.20
15187;BMP180;7694;48.234;11.162;2023-07-20T01:26:50;95141.00;;;27.10
15187;BMP180;7694;48.234;11.162;2023-07-20T01:32:19;95148.00;;;27.10
15187;BMP180;7694;48.234;11.162;2023-07-20T01:37:42;95158.00;;;27.00
15187;BMP180;7694;48.234;11.162;2023-07-20T01:43:03;95156.00;;;26.90
15187;BMP180;7694;48.234;11.162;2023-07-20T01:48:27;95160.00;;;26.90
15187;BMP180;7694;48.234;11.162;2023-07-20T01:53:47;95151.00;;;26.80
15187;BMP180;7694;48.234;11.162;2023-07-20T01:59:08;95157.00;;;26.80
15187;BMP180;7694;48.234;11.162;2023-07-20T02:04:30;95158.00;;;26.80
15187;BMP180;7694;48.234;11.162;2023-07-20T02:09:51;95159.00;;;26.70
15187;BMP180;7694;48.234;11.162;2023-07-20T02:15:12;95166.00;;;26.60
15187;BMP180;7694;48.234;11.162;2023-07-20T02:20:35;95152.00;;;26.50
15187;BMP180;7694;48.234;11.162;2023-07-20T02:25:56;95164.00;;;26.40
15187;BMP180;7694;48.234;11.162;2023-07-20T02:31:16;95173.00;;;26.30
15187;BMP180;7694;48.234;11.162;2023-07-20T02:36:38;95170.00;;;26.20
15187;BMP180;7694;48.234;11.162;2023-07-20T02:42:01;95171.00;;;26.10
15187;BMP180;7694;48.234;11.162;2023-07-20T02:47:22;95177.00;;;26.10
15187;BMP180;7694;48.234;11.162;2023-07-20T02:52:44;95173.00;;;26.00
15187;BMP180;7694;48.234;11.162;2023-07-20T02:58:04;95183.00;;;26.00
15187;BMP180;7694;48.234;11.162;2023-07-20T03:03:25;95180.00;;;26.00
15187;BMP180;7694;48.234;11.162;2023-07-20T03:08:47;95195.00;;;26.00
15187;BMP180;7694;48.234;11.162;2023-07-20T03:14:11;95188.00;;;25.90
15187;BMP180;7694;48.234;11.162;2023-07-20T03:19:32;95184.00;;;25.90
15187;BMP180;7694;48.234;11.162;2023-07-20T03:24:54;95187.00;;;25.80
15187;BMP180;7694;48.234;11.162;2023-07-20T03:30:15;95197.00;;;25.80
15187;BMP180;7694;48.234;11.162;2023-07-20T03:35:35;95207.00;;;25.80
15187;BMP180;7694;48.234;11.162;2023-07-20T03:40:59;95212.00;;;25.80
15187;BMP180;7694;48.234;11.162;2023-07-20T03:46:20;95215.00;;;25.70
15187;BMP180;7694;48.234;11.162;2023-07-20T03:51:40;95209.00;;;25.70
15187;BMP180;7694;48.234;11.162;2023-07-20T03:57:03;95207.00;;;25.60
15187;BMP180;7694;48.234;11.162;2023-07-20T04:02:23;95214.00;;;25.60
15187;BMP180;7694;48.234;11.162;2023-07-20T04:07:45;95215.00;;;25.60
15187;BMP180;7694;48.234;11.162;2023-07-20T04:13:07;95217.00;;;25.50
15187;BMP180;7694;48.234;11.162;2023-07-20T04:18:28;95221.00;;;25.40
15187;BMP180;7694;48.234;11.162;2023-07-20T04:23:48;95222.00;;;25.40
15187;BMP180;7694;48.234;11.162;2023-07-20T04:29:10;95228.00;;;25.40
15187;BMP180;7694;48.234;11.162;2023-07-20T04:34:31;95237.00;;;25.30
15187;BMP180;7694;48.234;11.162;2023-07-20T04:39:56;95231.00;;;25.20
15187;BMP180;7694;48.234;11.162;2023-07-20T04:45:18;95238.00;;;25.10
15187;BMP180;7694;48.234;11.162;2023-07-20T04:50:41;95245.00;;;25.10
15187;BMP180;7694;48.234;11.162;2023-07-20T04:56:02;95248.00;;;25.00
15187;BMP180;7694;48.234;11.162;2023-07-20T05:01:25;95248.00;;;25.00
15187;BMP180;7694;48.234;11.162;2023-07-20T05:06:45;95254.00;;;25.00
15187;BMP180;7694;48.234;11.162;2023-07-20T05:12:07;95249.00;;;24.90
15187;BMP180;7694;48.234;11.162;2023-07-20T05:17:29;95262.00;;;25.00
15187;BMP180;7694;48.234;11.162;2023-07-20T05:22:50;95263.00;;;25.00
15187;BMP180;7694;48.234;11.162;2023-07-20T05:28:12;95258.00;;;25.00
15187;BMP180;7694;48.234;11.162;2023-07-20T05:33:34;95263.00;;;25.00
15187;BMP180;7694;48.234;11.162;2023-07-20T05:38:55;95259.00;;;24.90
15187;BMP180;7694;48.234;11.162;2023-07-20T05:44:16;95259.00;;;24.90
15187;BMP180;7694;48.234;11.162;2023-07-20T05:49:38;95265.00;;;24.90
15187;BMP180;7694;48.234;11.162;2023-07-20T05:54:58;95269.00;;;24.80
15187;BMP180;7694;48.234;11.162;2023-07-20T06:00:19;95258.00;;;24.80
15187;BMP180;7694;48.234;11.162;2023-07-20T06:05:47;95262.00;;;24.80
15187;BMP180;7694;48.234;11.162;2023-07-20T06:11:08;95274.00;;;24.90
15187;BMP180;7694;48.234;11.162;2023-07-20T06:16:28;95262.00;;;25.20
15187;BMP180;7694;48.234;11.162;2023-07-20T06:21:50;95263.00;;;25.50
15187;BMP180;7694;48.234;11.162;2023-07-20T06:27:11;95277.00;;;25.80
15187;BMP180;7694;48.234;11.162;2023-07-20T06:32:33;95247.00;;;25.90
15187;BMP180;7694;48.234;11.162;2023-07-20T06:37:55;95255.00;;;26.20
15187;BMP180;7694;48.234;11.162;2023-07-20T06:43:17;95268.00;;;26.30
15187;BMP180;7694;48.234;11.162;2023-07-20T06:48:38;95263.00;;;26.30
15187;BMP180;7694;48.234;11.162;2023-07-20T06:54:00;95270.00;;;26.30
15187;BMP180;7694;48.234;11.162;2023-07-20T06:59:21;95269.00;;;26.30
15187;BMP180;7694;48.234;11.162;2023-07-20T07:04:42;95271.00;;;26.40
15187;BMP180;7694;48.234;11.162;2023-07-20T07:10:06;95251.00;;;26.60
15187;BMP180;7694;48.234;11.162;2023-07-20T07:15:28;95263.00;;;26.80
15187;BMP180;7694;48.234;11.162;2023-07-20T07:20:52;95256.00;;;27.00
15187;BMP180;7694;48.234;11.162;2023-07-20T07:26:14;95265.00;;;27.10
15187;BMP180;7694;48.234;11.162;2023-07-20T07:31:35;95271.00;;;27.20
15187;BMP180;7694;48.234;11.162;2023-07-20T07:36:57;95273.00;;;27.20
15187;BMP180;7694;48.234;11.162;2023-07-20T07:42:20;95271.00;;;27.20
15187;BMP180;7694;48.234;11.162;2023-07-20T07:47:41;95268.00;;;27.20
15187;BMP180;7694;48.234;11.162;2023-07-20T07:53:01;95265.00;;;27.20
15187;BMP180;7694;48.234;11.162;2023-07-20T07:58:24;95263.00;;;27.20
15187;BMP180;7694;48.234;11.162;2023-07-20T08:03:45;95263.00;;;27.20
15187;BMP180;7694;48.234;11.162;2023-07-20T08:09:07;95276.00;;;27.20
15187;BMP180;7694;48.234;11.162;2023-07-20T08:14:29;95280.00;;;27.30
15187;BMP180;7694;48.234;11.162;2023-07-20T08:19:49;95277.00;;;27.50
15187;BMP180;7694;48.234;11.162;2023-07-20T08:25:10;95269.00;;;27.60
15187;BMP180;7694;48.234;11.162;2023-07-20T08:30:41;95265.00;;;27.90
15187;BMP180;7694;48.234;11.162;2023-07-20T08:36:02;95269.00;;;28.10
15187;BMP180;7694;48.234;11.162;2023-07-20T08:41:25;95279.00;;;28.30
15187;BMP180;7694;48.234;11.162;2023-07-20T08:46:48;95274.00;;;28.30
15187;BMP180;7694;48.234;11.162;2023-07-20T08:52:10;95273.00;;;28.40
15187;BMP180;7694;48.234;11.162;2023-07-20T08:57:33;95279.00;;;28.40
15187;BMP180;7694;48.234;11.162;2023-07-20T09:02:57;95261.00;;;28.40
15187;BMP180;7694;48.234;11.162;2023-07-20T09:08:18;95263.00;;;28.40
15187;BMP180;7694;48.234;11.162;2023-07-20T09:13:38;95264.00;;;28.50
15187;BMP180;7694;48.234;11.162;2023-07-20T09:19:01;95253.00;;;28.40
15187;BMP180;7694;48.234;11.162;2023-07-20T09:24:22;95255.00;;;28.50
15187;BMP180;7694;48.234;11.162;2023-07-20T09:29:52;95255.00;;;28.40
15187;BMP180;7694;48.234;11.162;2023-07-20T09:35:15;95258.00;;;28.40
15187;BMP180;7694;48.234;11.162;2023-07-20T09:40:38;95255.00;;;28.40
15187;BMP180;7694;48.234;11.162;2023-07-20T09:45:59;95248.00;;;28.50
15187;BMP180;7694;48.234;11.162;2023-07-20T09:51:22;95244.00;;;28.60
15187;BMP180;7694;48.234;11.162;2023-07-20T09:56:44;95249.00;;;28.70
15187;BMP180;7694;48.234;11.162;2023-07-20T10:02:20;95238.00;;;28.80
15187;BMP180;7694;48.234;11.162;2023-07-20T10:07:47;95243.00;;;28.90
15187;BMP180;7694;48.234;11.162;2023-07-20T10:13:13;95248.00;;;28.90
15187;BMP180;7694;48.234;11.162;2023-07-20T10:18:47;95244.00;;;28.80
15187;BMP180;7694;48.234;11.162;2023-07-20T10:24:13;95241.00;;;28.80
15187;BMP180;7694;48.234;11.162;2023-07-20T10:29:34;95230.00;;;28.80
15187;BMP180;7694;48.234;11.162;2023-07-20T10:34:56;95238.00;;;28.80
15187;BMP180;7694;48.234;11.162;2023-07-20T10:40:33;95232.00;;;28.90
15187;BMP180;7694;48.234;11.162;2023-07-20T10:45:54;95224.00;;;29.00
15187;BMP180;7694;48.234;11.162;2023-07-20T10:51:21;95223.00;;;29.10
15187;BMP180;7694;48.234;11.162;2023-07-20T10:56:44;95224.00;;;29.20
15187;BMP180;7694;48.234;11.162;2023-07-20T11:02:08;95209.00;;;29.20
15187;BMP180;7694;48.234;11.162;2023-07-20T11:07:41;95216.00;;;29.40
15187;BMP180;7694;48.234;11.162;2023-07-20T11:13:23;95209.00;;;29.50
15187;BMP180;7694;48.234;11.162;2023-07-20T11:18:45;95196.00;;;29.70
15187;BMP180;7694;48.234;11.162;2023-07-20T11:24:07;95211.00;;;29.90
15187;BMP180;7694;48.234;11.162;2023-07-20T11:29:30;95205.00;;;29.90
15187;BMP180;7694;48.234;11.162;2023-07-20T11:34:51;95197.00;;;29.90
15187;BMP180;7694;48.234;11.162;2023-07-20T11:40:13;95195.00;;;30.00
15187;BMP180;7694;48.234;11.162;2023-07-20T11:45:35;95182.00;;;30.00
15187;BMP180;7694;48.234;11.162;2023-07-20T11:50:57;95184.00;;;30.00
15187;BMP180;7694;48.234;11.162;2023-07-20T11:56:18;95175.00;;;30.00
15187;BMP180;7694;48.234;11.162;2023-07-20T12:01:41;95174.00;;;30.00
15187;BMP180;7694;48.234;11.162;2023-07-20T12:07:03;95175.00;;;30.00
15187;BMP180;7694;48.234;11.162;2023-07-20T12:12:25;95167.00;;;30.10
15187;BMP180;7694;48.234;11.162;2023-07-20T12:17:51;95159.00;;;30.10
15187;BMP180;7694;48.234;11.162;2023-07-20T12:23:13;95150.00;;;30.20
15187;BMP180;7694;48.234;11.162;2023-07-20T12:28:39;95149.00;;;30.20
15187;BMP180;7694;48.234;11.162;2023-07-20T12:34:04;95134.00;;;30.30
15187;BMP180;7694;48.234;11.162;2023-07-20T12:39:27;95132.00;;;30.50
15187;BMP180;7694;48.234;11.162;2023-07-20T12:44:49;95125.00;;;30.60
15187;BMP180;7694;48.234;11.162;2023-07-20T12:50:11;95122.00;;;30.80
15187;BMP180;7694;48.234;11.162;2023-07-20T12:55:34;95112.00;;;30.90
15187;BMP180;7694;48.234;11.162;2023-07-20T13:00:55;95110.00;;;31.00
15187;BMP180;7694;48.234;11.162;2023-07-20T13:06:17;95101.00;;;31.00
15187;BMP180;7694;48.234;11.162;2023-07-20T13:11:38;95108.00;;;31.10
15187;BMP180;7694;48.234;11.162;2023-07-20T13:16:58;95112.00;;;31.00
15187;BMP180;7694;48.234;11.162;2023-07-20T13:22:20;95107.00;;;31.00
15187;BMP180;7694;48.234;11.162;2023-07-20T13:27:42;95108.00;;;31.10
15187;BMP180;7694;48.234;11.162;2023-07-20T13:33:03;95102.00;;;31.20
15187;BMP180;7694;48.234;11.162;2023-07-20T13:38:25;95085.00;;;31.30
15187;BMP180;7694;48.234;11.162;2023-07-20T13:43:46;95090.00;;;31.50
15187;BMP180;7694;48.234;11.162;2023-07-20T13:49:10;95071.00;;;31.60
15187;BMP180;7694;48.234;11.162;2023-07-20T13:54:32;95073.00;;;31.70
15187;BMP180;7694;48.234;11.162;2023-07-20T13:59:52;95063.00;;;31.80
15187;BMP180;7694;48.234;11.162;2023-07-20T14:05:13;95059.00;;;31.80
15187;BMP180;7694;48.234;11.162;2023-07-20T14:10:37;95061.00;;;31.90
15187;BMP180;7694;48.234;11.162;2023-07-20T14:15:58;95046.00;;;31.80
15187;BMP180;7694;48.234;11.162;2023-07-20T14:21:21;95050.00;;;31.70
15187;BMP180;7694;48.234;11.162;2023-07-20T14:26:46;95046.00;;;31.70
15187;BMP180;7694;48.234;11.162;2023-07-20T14:32:07;95040.00;;;31.70
15187;BMP180;7694;48.234;11.162;2023-07-20T14:37:28;95037.00;;;31.70
15187;BMP180;7694;48.234;11.162;2023-07-20T14:42:51;95035.00;;;31.70
15187;BMP180;7694;48.234;11.162;2023-07-20T14:48:11;95034.00;;;31.80
15187;BMP180;7694;48.234;11.162;2023-07-20T14:53:32;95026.00;;;31.80
15187;BMP180;7694;48.234;11.162;2023-07-20T14:58:54;95023.00;;;31.90
15187;BMP180;7694;48.234;11.162;2023-07-20T15:04:15;95020.00;;;31.90
15187;BMP180;7694;48.234;11.162;2023-07-20T15:09:36;95017.00;;;31.90
15187;BMP180;7694;48.234;11.162;2023-07-20T15:15:07;95017.00;;;32.00
15187;BMP180;7694;48.234;11.162;2023-07-20T15:20:28;95005.00;;;32.00
15187;BMP180;7694;48.234;11.162;2023-07-20T15:25:51;95008.00;;;32.00
15187;BMP180;7694;48.234;11.162;2023-07-20T15:31:13;95000.00;;;32.10
15187;BMP180;7694;48.234;11.162;2023-07-20T15:36:33;94997.00;;;32.00
15187;BMP180;7694;48.234;11.162;2023-07-20T15:41:55;94997.00;;;32.00
15187;BMP180;7694;48.234;11.162;2023-07-20T15:47:17;94994.00;;;32.00
15187;BMP180;7694;48.234;11.162;2023-07-20T15:52:38;94992.00;;;32.00
15187;BMP180;7694;48.234;11.162;2023-07-20T15:58:01;94987.00;;;32.10
15187;BMP180;7694;48.234;11.162;2023-07-20T16:03:23;94990.00;;;32.10
15187;BMP180;7694;48.234;11.162;2023-07-20T16:08:45;94985.00;;;32.00
15187;BMP180;7694;48.234;11.162;2023-07-20T16:14:06;94979.00;;;32.00
15187;BMP180;7694;48.234;11.162;2023-07-20T16:19:29;94974.00;;;32.00
15187;BMP180;7694;48.234;11.162;2023-07-20T16:24:50;94967.00;;;31.90
15187;BMP180;7694;48.234;11.162;2023-07-20T16:30:11;94962.00;;;32.00
15187;BMP180;7694;48.234;11.162;2023-07-20T16:35:38;94957.00;;;31.90
15187;BMP180;7694;48.234;11.162;2023-07-20T16:40:59;94961.00;;;31.90
15187;BMP180;7694;48.234;11.162;2023-07-20T16:46:20;94960.00;;;31.90
15187;BMP180;7694;48.234;11.162;2023-07-20T16:51:42;94954.00;;;31.80
15187;BMP180;7694;48.234;11.162;2023-07-20T16:57:03;94953.00;;;31.70
15187;BMP180;7694;48.234;11.162;2023-07-20T17:02:24;94956.00;;;31.70
15187;BMP180;7694;48.234;11.162;2023-07-20T17:07:46;94954.00;;;31.70
15187;BMP180;7694;48.234;11.162;2023-07-20T17:13:08;94957.00;;;31.70
15187;BMP180;7694;48.234;11.162;2023-07-20T17:18:30;94955.00;;;31.70
15187;BMP180;7694;48.234;11.162;2023-07-20T17:23:52;94955.00;;;31.70
15187;BMP180;7694;48.234;11.162;2023-07-20T17:29:14;94956.00;;;31.70
15187;BMP180;7694;48.234;11.162;2023-07-20T17:34:34;94947.00;;;31.50
15187;BMP180;7694;48.234;11.162;2023-07-20T17:39:56;94954.00;;;31.40
15187;BMP180;7694;48.234;11.162;2023-07-20T17:45:18;94953.00;;;31.30
15187;BMP180;7694;48.234;11.162;2023-07-20T17:50:38;94952.00;;;31.20
15187;BMP180;7694;48.234;11.162;2023-07-20T17:56:04;94949.00;;;31.10
15187;BMP180;7694;48.234;11.162;2023-07-20T18:01:25;94949.00;;;31.10
15187;BMP180;7694;48.234;11.162;2023-07-20T18:06:46;94948.00;;;31.00
15187;BMP180;7694;48.234;11.162;2023-07-20T18:12:08;94941.00;;;31.00
15187;BMP180;7694;48.234;11.162;2023-07-20T18:17:29;94948.00;;;30.90
15187;BMP180;7694;48.234;11.162;2023-07-20T18:22:49;94937.00;;;30.80
15187;BMP180;7694;48.234;11.162;2023-07-20T18:28:12;94947.00;;;30.80
15187;BMP180;7694;48.234;11.162;2023-07-20T18:33:32;94949.00;;;30.70
15187;BMP180;7694;48.234;11.162;2023-07-20T18:38:56;94935.00;;;30.70
15187;BMP180;7694;48.234;11.162;2023-07-20T18:44:18;94954.00;;;30.60
15187;BMP180;7694;48.234;11.162;2023-07-20T18:49:39;94949.00;;;30.50
15187;BMP180;7694;48.234;11.162;2023-07-20T18:55:00;94952.00;;;30.40
15187;BMP180;7694;48.234;11.162;2023-07-20T19:00:22;94953.00;;;30.20
15187;BMP180;7694;48.234;11.162;2023-07-20T19:05:44;94963.00;;;30.10
15187;BMP180;7694;48.234;11.162;2023-07-20T19:11:05;94957.00;;;29.90
15187;BMP180;7694;48.234;11.162;2023-07-20T19:16:27;94962.00;;;29.70
15187;BMP180;7694;48.234;11.162;2023-07-20T19:21:48;94967.00;;;29.50
15187;BMP180;7694;48.234;11.162;2023-07-20T19:27:09;94971.00;;;29.30
15187;BMP180;7694;48.234;11.162;2023-07-20T19:32:31;94974.00;;;29.10
15187;BMP180;7694;48.234;11.162;2023-07-20T19:37:52;94986.00;;;29.00
15187;BMP180;7694;48.234;11.162;2023-07-20T19:43:12;94992.00;;;28.80
15187;BMP180;7694;48.234;11.162;2023-07-20T19:48:36;95000.00;;;28.60
15187;BMP180;7694;48.234;11.162;2023-07-20T19:53:56;95004.00;;;28.40
15187;BMP180;7694;48.234;11.162;2023-07-20T19:59:18;94998.00;;;28.20
15187;BMP180;7694;48.234;11.162;2023-07-20T20:04:39;95010.00;;;28.10
15187;BMP180;7694;48.234;11.162;2023-07-20T20:10:00;94997.00;;;27.90
15187;BMP180;7694;48.234;11.162;2023-07-20T20:15:22;94997.00;;;27.80
15187;BMP180;7694;48.234;11.162;2023-07-20T20:20:45;95002.00;;;27.60
15187;BMP180;7694;48.234;11.162;2023-07-20T20:26:06;95001.00;;;27.50
15187;BMP180;7694;48.234;11.162;2023-07-20T20:31:27;95003.00;;;27.30
15187;BMP180;7694;48.234;11.162;2023-07-20T20:36:49;94993.00;;;27.20
15187;BMP180;7694;48.234;11.162;2023-07-20T20:42:10;94995.00;;;27.00
15187;BMP180;7694;48.234;11.162;2023-07-20T20:47:31;94996.00;;;26.80
15187;BMP180;7694;48.234;11.162;2023-07-20T20:52:55;94993.00;;;26.70
15187;BMP180;7694;48.234;11.162;2023-07-20T20:58:16;94982.00;;;26.60
15187;BMP180;7694;48.234;11.162;2023-07-20T21:03:37;94977.00;;;26.40
15187;BMP180;7694;48.234;11.162;2023-07-20T21:08:59;94984.00;;;26.30
15187;BMP180;7694;48.234;11.162;2023-07-20T21:14:20;94982.00;;;26.20
15187;BMP180;7694;48.234;11.162;2023-07-20T21:19:42;94978.00;;;26.10
15187;BMP180;7694;48.234;11.162;2023-07-20T21:25:05;94974.00;;;26.00
15187;BMP180;7694;48.234;11.162;2023-07-20T21:30:26;94975.00;;;25.90
15187;BMP180;7694;48.234;11.162;2023-07-20T21:35:47;94976.00;;;25.80
15187;BMP180;7694;48.234;11.162;2023-07-20T21:41:09;94970.00;;;25.70
15187;BMP180;7694;48.234;11.162;2023-07-20T21:46:39;94972.00;;;25.60
15187;BMP180;7694;48.234;11.162;2023-07-20T21:52:00;94968.00;;;25.50
15187;BMP180;7694;48.234;11.162;2023-07-20T21:57:24;94978.00;;;25.40
15187;BMP180;7694;48.234;11.162;2023-07-20T22:02:45;94971.00;;;25.30
15187;BMP180;7694;48.234;11.162;2023-07-20T22:08:05;94972.00;;;25.20
15187;BMP180;7694;48.234;11.162;2023-07-20T22:13:27;94980.00;;;25.20
15187;BMP180;7694;48.234;11.162;2023-07-20T22:18:48;94981.00;;;25.10
15187;BMP180;7694;48.234;11.162;2023-07-20T22:24:08;94977.00;;;25.00
15187;BMP180;7694;48.234;11.162;2023-07-20T22:29:30;94973.00;;;25.00
15187;BMP180;7694;48.234;11.162;2023-07-20T22:34:52;94976.00;;;24.90
15187;BMP180;7694;48.234;11.162;2023-07-20T22:40:13;94976.00;;;24.80
15187;BMP180;7694;48.234;11.162;2023-07-20T22:45:35;94968.00;;;24.70
15187;BMP180;7694;48.234;11.162;2023-07-20T22:50:56;94966.00;;;24.50
15187;BMP180;7694;48.234;11.162;2023-07-20T22:56:18;94964.00;;;24.40
15187;BMP180;7694;48.234;11.162;2023-07-20T23:01:40;94964.00;;;24.40
15187;BMP180;7694;48.234;11.162;2023-07-20T23:07:03;94959.00;;;24.20
15187;BMP180;7694;48.234;11.162;2023-07-20T23:12:26;94959.00;;;24.10
15187;BMP180;7694;48.234;11.162;2023-07-20T23:17:48;94949.00;;;24.00
15187;BMP180;7694;48.234;11.162;2023-07-20T23:23:10;94934.00;;;24.00
15187;BMP180;7694;48.234;11.162;2023-07-20T23:28:31;94938.00;;;23.90
15187;BMP180;7694;48.234;11.162;2023-07-20T23:33:52;94919.00;;;23.80
15187;BMP180;7694;48.234;11.162;2023-07-20T23:39:13;94923.00;;;23.70
15187;BMP180;7694;48.234;11.162;2023-07-20T23:44:34;94901.00;;;23.70
15187;BMP180;7694;48.234;11.162;2023-07-20T23:49:58;94896.00;;;23.70
15187;BMP180;7694;48.234;11.162;2023-07-20T23:55:19;94891.00;;;23.60
